createdAt,value
2023-04-15T00:00:58.785Z,99906.88
2023-04-15T00:03:25.644Z,99906.75
2023-04-15T00:05:52.431Z,99914.59
2023-04-15T00:08:19.059Z,99916.66
2023-04-15T00:10:45.724Z,99921.56
2023-04-15T00:13:12.445Z,99912.75
2023-04-15T00:15:39.125Z,99919.13
2023-04-15T00:18:07.499Z,99928.88
2023-04-15T00:20:34.225Z,99933.47
2023-04-15T00:23:02.369Z,99931.59
2023-04-15T00:25:28.976Z,99931.22
2023-04-15T00:27:55.570Z,99938.81
2023-04-15T00:30:22.521Z,99937.63
2023-04-15T00:32:49.150Z,99952.69
2023-04-15T00:35:17.254Z,99944.56
2023-04-15T00:37:45.933Z,99948.56
2023-04-15T00:40:13.894Z,99947.63
2023-04-15T00:42:41.046Z,99952.13
2023-04-15T00:45:08.888Z,99964.81
2023-04-15T00:47:37.669Z,99967.34
2023-04-15T00:50:07.825Z,99972.75
2023-04-15T00:52:35.870Z,99976.91
2023-04-15T00:55:03.487Z,99979.84
2023-04-15T00:57:32.931Z,99986.97
2023-04-15T01:00:00.792Z,99987.78
2023-04-15T01:02:27.645Z,99994.31
2023-04-15T01:04:54.566Z,99996.78
2023-04-15T01:07:21.226Z,100002.88
2023-04-15T01:09:49.319Z,100001.47
2023-04-15T01:12:17.887Z,100005.81
2023-04-15T01:14:44.597Z,100009.72
2023-04-15T01:17:11.301Z,100011.31
2023-04-15T01:19:38.299Z,100015.66
2023-04-15T01:22:04.999Z,100025.75
2023-04-15T01:24:32.628Z,100021.41
2023-04-15T01:27:00.997Z,100035.00
2023-04-15T01:29:27.773Z,100035.97
2023-04-15T01:31:55.854Z,100030.19
2023-04-15T01:34:22.834Z,100042.84
2023-04-15T01:36:49.520Z,100048.06
2023-04-15T01:39:16.176Z,100053.97
2023-04-15T01:41:42.742Z,100046.78
2023-04-15T01:44:10.877Z,100053.53
2023-04-15T01:46:37.967Z,100049.00
2023-04-15T01:49:04.738Z,100049.66
2023-04-15T01:51:31.444Z,100049.78
2023-04-15T01:53:58.002Z,100050.25
2023-04-15T01:56:24.793Z,100048.38
2023-04-15T01:58:51.406Z,100048.47
2023-04-15T02:01:19.639Z,100050.53
2023-04-15T02:03:46.803Z,100050.34
2023-04-15T02:06:13.416Z,100059.53
2023-04-15T02:08:40.042Z,100060.53
2023-04-15T02:11:06.624Z,100069.56
2023-04-15T02:13:33.233Z,100067.75
2023-04-15T02:16:00.209Z,100073.50
2023-04-15T02:18:32.326Z,100078.91
2023-04-15T02:20:59.188Z,100071.63
2023-04-15T02:23:26.018Z,100081.53
2023-04-15T02:25:53.329Z,100077.22
2023-04-15T02:28:21.026Z,100081.16
2023-04-15T02:30:48.385Z,100090.44
2023-04-15T02:33:14.994Z,100091.47
2023-04-15T02:35:45.005Z,100100.94
2023-04-15T02:38:11.610Z,100098.31
2023-04-15T02:40:38.177Z,100102.13
2023-04-15T02:43:04.815Z,100099.97
2023-04-15T02:45:31.459Z,100114.34
2023-04-15T02:47:58.333Z,100113.13
2023-04-15T02:50:25.060Z,100116.94
2023-04-15T02:52:53.125Z,100123.59
2023-04-15T02:55:19.884Z,100129.50
2023-04-15T02:57:47.596Z,100125.41
2023-04-15T03:00:14.655Z,100126.13
2023-04-15T03:02:41.465Z,100125.19
2023-04-15T03:05:12.059Z,100131.16
2023-04-15T03:07:39.871Z,100141.19
2023-04-15T03:10:09.146Z,100141.75
2023-04-15T03:12:35.746Z,100147.06
2023-04-15T03:15:02.349Z,100155.34
2023-04-15T03:17:28.985Z,100156.19
2023-04-15T03:19:55.669Z,100166.19
2023-04-15T03:22:22.287Z,100166.00
2023-04-15T03:24:48.852Z,100166.78
2023-04-15T03:27:16.808Z,100172.97
2023-04-15T03:29:43.411Z,100170.31
2023-04-15T03:32:10.066Z,100180.03
2023-04-15T03:34:37.846Z,100183.53
2023-04-15T03:37:05.246Z,100185.44
2023-04-15T03:39:31.857Z,100177.78
2023-04-15T03:41:59.180Z,100170.00
2023-04-15T03:44:27.835Z,100179.09
2023-04-15T03:46:54.534Z,100179.03
2023-04-15T03:49:21.147Z,100175.81
2023-04-15T03:51:47.729Z,100187.56
2023-04-15T03:54:14.410Z,100186.72
2023-04-15T03:56:41.037Z,100192.41
2023-04-15T03:59:07.691Z,100198.69
2023-04-15T04:01:35.695Z,100195.66
2023-04-15T04:04:02.531Z,100192.31
2023-04-15T04:06:29.195Z,100190.88
2023-04-15T04:08:55.990Z,100187.66
2023-04-15T04:11:22.623Z,100190.91
2023-04-15T04:13:49.244Z,100194.66
2023-04-15T04:16:16.455Z,100213.63
2023-04-15T04:18:44.587Z,100217.97
2023-04-15T04:21:11.469Z,100219.69
2023-04-15T04:23:38.184Z,100226.50
2023-04-15T04:26:04.904Z,100227.19
2023-04-15T04:28:31.533Z,100236.66
2023-04-15T04:30:58.297Z,100240.41
2023-04-15T04:33:25.058Z,100238.53
2023-04-15T04:35:53.055Z,100250.88
2023-04-15T04:38:19.880Z,100257.28
2023-04-15T04:40:46.464Z,100254.41
2023-04-15T04:43:13.112Z,100261.84
2023-04-15T04:45:39.793Z,100263.06
2023-04-15T04:48:06.616Z,100269.00
2023-04-15T04:50:33.369Z,100266.13
2023-04-15T04:53:01.822Z,100266.09
2023-04-15T04:55:28.454Z,100273.50
2023-04-15T04:57:55.088Z,100276.72
2023-04-15T05:00:21.979Z,100290.09
2023-04-15T05:02:48.885Z,100297.91
2023-04-15T05:05:15.577Z,100288.63
2023-04-15T05:07:44.274Z,100297.25
2023-04-15T05:10:12.340Z,100291.16
2023-04-15T05:12:39.014Z,100290.16
2023-04-15T05:15:09.034Z,100296.94
2023-04-15T05:17:35.831Z,100303.38
2023-04-15T05:20:02.523Z,100311.88
2023-04-15T05:22:29.419Z,100321.69
2023-04-15T05:24:56.058Z,100320.66
2023-04-15T05:27:24.009Z,100330.47
2023-04-15T05:29:50.579Z,100331.81
2023-04-15T05:32:17.393Z,100340.59
2023-04-15T05:34:43.990Z,100342.28
2023-04-15T05:37:10.738Z,100350.41
2023-04-15T05:39:38.535Z,100357.88
2023-04-15T05:42:05.242Z,100359.25
2023-04-15T05:44:33.313Z,100357.88
2023-04-15T05:46:59.952Z,100367.19
2023-04-15T05:49:26.551Z,100366.66
2023-04-15T05:51:53.125Z,100373.66
2023-04-15T05:54:20.359Z,100379.59
2023-04-15T05:56:47.126Z,100385.69
2023-04-15T05:59:13.698Z,100395.84
2023-04-15T06:01:41.943Z,100401.78
2023-04-15T06:04:08.740Z,100396.84
2023-04-15T06:06:35.501Z,100403.31
2023-04-15T06:09:02.428Z,100409.25
2023-04-15T06:11:29.297Z,100420.41
2023-04-15T06:13:56.223Z,100423.13
2023-04-15T06:16:22.841Z,100433.81
2023-04-15T06:18:50.948Z,100441.25
2023-04-15T06:21:17.644Z,100449.72
2023-04-15T06:23:44.640Z,100455.47
2023-04-15T06:26:11.248Z,100455.13
2023-04-15T06:28:37.832Z,100458.19
2023-04-15T06:31:04.610Z,100463.63
2023-04-15T06:33:31.919Z,100472.78
2023-04-15T06:35:59.946Z,100490.38
2023-04-15T06:38:26.535Z,100491.75
2023-04-15T06:40:53.320Z,100495.31
2023-04-15T06:43:19.914Z,100499.03
2023-04-15T06:45:46.483Z,100508.72
2023-04-15T06:48:13.167Z,100506.03
2023-04-15T06:50:40.157Z,100510.38
2023-04-15T06:53:08.319Z,100508.66
2023-04-15T06:55:35.211Z,100506.50
2023-04-15T06:58:01.779Z,100515.59
2023-04-15T07:00:28.509Z,100537.50
2023-04-15T07:02:55.492Z,100537.31
2023-04-15T07:05:22.132Z,100545.00
2023-04-15T07:07:48.734Z,100553.91
2023-04-15T07:10:17.144Z,100552.00
2023-04-15T07:12:43.811Z,100547.47
2023-04-15T07:15:11.321Z,100550.66
2023-04-15T07:17:37.973Z,100552.81
2023-04-15T07:20:05.348Z,100550.19
2023-04-15T07:22:32.029Z,100558.81
2023-04-15T07:24:58.677Z,100567.66
2023-04-15T07:27:26.798Z,100566.81
2023-04-15T07:29:53.470Z,100572.06
2023-04-15T07:32:20.332Z,100576.94
2023-04-15T07:34:46.924Z,100589.13
2023-04-15T07:37:13.728Z,100601.41
2023-04-15T07:39:40.379Z,100604.59
2023-04-15T07:42:07.022Z,100620.59
2023-04-15T07:44:34.999Z,100619.13
2023-04-15T07:47:02.781Z,100620.63
2023-04-15T07:49:29.688Z,100627.31
2023-04-15T07:51:56.343Z,100634.66
2023-04-15T07:54:25.319Z,100629.47
2023-04-15T07:56:52.165Z,100653.63
2023-04-15T07:59:18.874Z,100647.56
2023-04-15T08:01:46.961Z,100655.91
2023-04-15T08:04:13.701Z,100662.34
2023-04-15T08:06:40.460Z,100658.25
2023-04-15T08:09:07.450Z,100662.91
2023-04-15T08:11:36.161Z,100663.38
2023-04-15T08:14:02.869Z,100663.75
2023-04-15T08:16:29.644Z,100672.19
2023-04-15T08:18:58.058Z,100666.34
2023-04-15T08:21:24.885Z,100674.31
2023-04-15T08:23:52.899Z,100680.22
2023-04-15T08:26:20.457Z,100688.69
2023-04-15T08:28:47.181Z,100696.25
2023-04-15T08:31:16.346Z,100696.16
2023-04-15T08:33:43.099Z,100697.91
2023-04-15T08:36:11.112Z,100695.94
2023-04-15T08:38:37.919Z,100708.31
2023-04-15T08:41:11.840Z,100715.81
2023-04-15T08:43:46.713Z,100709.56
2023-04-15T08:46:13.582Z,100720.97
2023-04-15T08:48:40.315Z,100729.91
2023-04-15T08:51:07.409Z,100730.84
2023-04-15T08:53:35.824Z,100730.22
2023-04-15T08:56:05.222Z,100735.72
2023-04-15T08:58:32.381Z,100743.19
2023-04-15T09:00:59.296Z,100745.34
2023-04-15T09:03:26.505Z,100744.44
2023-04-15T09:05:54.817Z,100748.91
2023-04-15T09:08:21.467Z,100759.44
2023-04-15T09:10:49.823Z,100754.94
2023-04-15T09:13:19.571Z,100758.34
2023-04-15T09:15:46.468Z,100757.41
2023-04-15T09:18:26.843Z,100765.06
2023-04-15T09:20:55.858Z,100769.47
2023-04-15T09:23:22.912Z,100773.09
2023-04-15T09:25:51.079Z,100773.69
2023-04-15T09:28:24.774Z,100768.19
2023-04-15T09:30:52.886Z,100766.47
2023-04-15T09:33:19.544Z,100772.16
2023-04-15T09:35:57.423Z,100772.28
2023-04-15T09:38:24.067Z,100781.22
2023-04-15T09:40:52.236Z,100785.44
2023-04-15T09:43:18.981Z,100801.22
2023-04-15T09:45:49.248Z,100796.94
2023-04-15T09:48:18.325Z,100804.09
2023-04-15T09:50:44.979Z,100800.03
2023-04-15T09:53:11.945Z,100802.13
2023-04-15T09:55:39.745Z,100798.19
2023-04-15T09:58:18.029Z,100794.59
2023-04-15T10:00:47.208Z,100791.94
2023-04-15T10:03:19.021Z,100805.47
2023-04-15T10:05:48.196Z,100800.47
2023-04-15T10:08:15.999Z,100796.25
2023-04-15T10:10:42.904Z,100808.53
2023-04-15T10:13:13.129Z,100803.94
2023-04-15T10:15:43.817Z,100818.59
2023-04-15T10:18:13.155Z,100830.53
2023-04-15T10:20:42.263Z,100839.75
2023-04-15T10:23:11.001Z,100834.31
2023-04-15T10:25:38.999Z,100847.97
2023-04-15T10:28:07.299Z,100851.44
2023-04-15T10:30:36.657Z,100845.88
2023-04-15T10:33:04.114Z,100851.44
2023-04-15T10:35:32.357Z,100838.03
2023-04-15T10:37:58.911Z,100829.84
2023-04-15T10:40:27.784Z,100836.88
2023-04-15T10:42:55.427Z,100835.47
2023-04-15T10:45:22.512Z,100834.13
2023-04-15T10:47:55.609Z,100836.25
2023-04-15T10:50:22.541Z,100841.56
2023-04-15T10:52:51.558Z,100855.13
2023-04-15T10:55:21.320Z,100850.41
2023-04-15T10:57:52.704Z,100849.41
2023-04-15T11:00:26.260Z,100857.78
2023-04-15T11:02:56.776Z,100857.28
2023-04-15T11:05:44.405Z,100860.00
2023-04-15T11:08:12.893Z,100860.44
2023-04-15T11:10:54.393Z,100871.34
2023-04-15T11:13:25.672Z,100876.25
2023-04-15T11:15:56.891Z,100873.22
2023-04-15T11:18:27.187Z,100874.13
2023-04-15T11:20:56.590Z,100869.06
2023-04-15T11:23:32.259Z,100873.41
2023-04-15T11:26:00.452Z,100862.59
2023-04-15T11:28:28.581Z,100863.22
2023-04-15T11:30:55.964Z,100856.09
2023-04-15T11:33:23.377Z,100864.19
2023-04-15T11:35:53.175Z,100857.69
2023-04-15T11:38:20.230Z,100856.38
2023-04-15T11:40:47.349Z,100855.75
2023-04-15T11:43:16.066Z,100853.44
2023-04-15T11:45:51.210Z,100859.00
2023-04-15T11:48:19.029Z,100869.06
2023-04-15T11:50:46.616Z,100871.69
2023-04-15T11:53:14.702Z,100863.13
2023-04-15T11:55:43.205Z,100859.97
2023-04-15T11:58:10.809Z,100867.84
2023-04-15T12:00:38.499Z,100876.06
2023-04-15T12:03:19.486Z,100866.94
2023-04-15T12:06:10.251Z,100883.81
2023-04-15T12:09:14.466Z,100893.66
2023-04-15T12:11:45.926Z,100893.88
2023-04-15T12:14:18.533Z,100893.38
2023-04-15T12:16:48.656Z,100896.72
2023-04-15T12:19:23.567Z,100902.31
2023-04-15T12:21:50.699Z,100894.91
2023-04-15T12:24:21.609Z,100902.41
2023-04-15T12:26:49.738Z,100904.16
2023-04-15T12:29:17.448Z,100910.63
2023-04-15T12:31:48.921Z,100913.19
2023-04-15T12:34:15.527Z,100921.97
2023-04-15T12:36:42.460Z,100920.16
2023-04-15T12:39:09.479Z,100912.56
2023-04-15T12:41:37.636Z,100919.72
2023-04-15T12:44:04.470Z,100926.97
2023-04-15T12:46:31.461Z,100926.66
2023-04-15T12:48:58.533Z,100928.34
2023-04-15T12:51:25.180Z,100929.22
2023-04-15T12:53:51.791Z,100924.22
2023-04-15T12:56:18.347Z,100925.53
2023-04-15T12:58:46.287Z,100942.72
2023-04-15T13:01:12.978Z,100935.03
2023-04-15T13:03:39.704Z,100942.50
2023-04-15T13:06:06.412Z,100938.88
2023-04-15T13:08:33.144Z,100932.91
2023-04-15T13:10:59.858Z,100935.03
2023-04-15T13:13:26.819Z,100946.72
2023-04-15T13:15:54.857Z,100951.91
2023-04-15T13:18:21.486Z,100952.31
2023-04-15T13:20:48.405Z,100946.50
2023-04-15T13:23:15.122Z,100952.13
2023-04-15T13:25:41.753Z,100953.50
2023-04-15T13:28:08.468Z,100960.63
2023-04-15T13:30:37.631Z,100973.19
2023-04-15T13:33:05.890Z,100964.22
2023-04-15T13:35:32.822Z,100964.09
2023-04-15T13:37:59.402Z,100960.53
2023-04-15T13:40:26.205Z,100962.47
2023-04-15T13:42:52.773Z,100965.22
2023-04-15T13:45:19.469Z,100964.38
2023-04-15T13:47:46.171Z,100970.50
2023-04-15T13:50:14.140Z,100969.22
2023-04-15T13:52:40.779Z,100976.75
2023-04-15T13:55:18.814Z,100986.72
2023-04-15T13:57:47.973Z,100980.34
2023-04-15T14:00:15.238Z,100980.34
2023-04-15T14:02:42.024Z,100987.66
2023-04-15T14:05:09.643Z,100990.25
2023-04-15T14:07:37.844Z,100994.84
2023-04-15T14:10:05.306Z,100987.09
2023-04-15T14:12:31.939Z,100983.25
2023-04-15T14:14:58.616Z,100990.16
2023-04-15T14:17:25.285Z,100992.69
2023-04-15T14:19:51.939Z,100996.25
2023-04-15T14:22:18.535Z,100989.56
2023-04-15T14:24:49.999Z,101001.50
2023-04-15T14:27:16.597Z,100992.44
2023-04-15T14:29:43.219Z,100987.84
2023-04-15T14:32:12.063Z,100980.69
2023-04-15T14:34:39.769Z,100996.78
2023-04-15T14:37:06.520Z,100998.63
2023-04-15T14:39:33.199Z,100996.25
2023-04-15T14:42:01.189Z,100994.97
2023-04-15T14:44:27.819Z,100997.28
2023-04-15T14:46:54.634Z,101002.78
2023-04-15T14:49:21.292Z,101003.50
2023-04-15T14:51:47.972Z,100995.25
2023-04-15T14:54:15.085Z,100998.50
2023-04-15T14:56:41.666Z,100998.38
2023-04-15T14:59:09.707Z,101007.81
2023-04-15T15:01:36.517Z,101012.94
2023-04-15T15:04:04.128Z,101009.94
2023-04-15T15:06:30.989Z,101019.88
2023-04-15T15:08:57.728Z,101017.44
2023-04-15T15:11:24.355Z,101011.19
2023-04-15T15:13:51.013Z,101014.31
2023-04-15T15:16:19.089Z,101009.84
2023-04-15T15:18:45.687Z,101014.06
2023-04-15T15:21:13.353Z,101021.41
2023-04-15T15:23:39.919Z,101019.16
2023-04-15T15:26:06.584Z,101017.78
2023-04-15T15:28:37.491Z,101021.44
2023-04-15T15:31:04.116Z,101026.63
2023-04-15T15:33:32.275Z,101026.59
2023-04-15T15:35:59.042Z,101012.63
2023-04-15T15:38:25.672Z,101019.66
2023-04-15T15:40:52.279Z,101014.53
2023-04-15T15:43:19.006Z,101014.56
2023-04-15T15:45:45.693Z,101008.72
2023-04-15T15:48:12.286Z,101005.50
2023-04-15T15:50:40.383Z,101011.19
2023-04-15T15:53:06.968Z,101005.47
2023-04-15T15:55:33.807Z,101004.44
2023-04-15T15:58:00.683Z,101004.03
2023-04-15T16:00:27.277Z,101012.53
2023-04-15T16:03:06.852Z,101005.03
2023-04-15T16:05:34.294Z,101010.06
2023-04-15T16:08:02.353Z,101007.09
2023-04-15T16:10:29.059Z,101016.22
2023-04-15T16:12:57.754Z,101010.16
2023-04-15T16:15:25.969Z,101014.28
2023-04-15T16:17:52.961Z,101015.13
2023-04-15T16:20:19.631Z,101006.63
2023-04-15T16:22:46.294Z,101016.28
2023-04-15T16:25:14.309Z,101017.19
2023-04-15T16:27:57.085Z,101021.84
2023-04-15T16:30:26.153Z,101018.44
2023-04-15T16:32:53.163Z,101017.91
2023-04-15T16:35:20.030Z,101028.25
2023-04-15T16:37:46.885Z,101028.38
2023-04-15T16:40:15.147Z,101024.75
2023-04-15T16:42:41.909Z,101037.66
2023-04-15T16:45:09.444Z,101048.63
2023-04-15T16:47:36.186Z,101038.94
2023-04-15T16:50:03.389Z,101035.78
2023-04-15T16:52:30.259Z,101037.28
2023-04-15T16:54:56.936Z,101036.00
2023-04-15T16:57:25.197Z,101034.22
2023-04-15T16:59:59.360Z,101041.81
2023-04-15T17:02:26.329Z,101038.94
2023-04-15T17:04:53.164Z,101043.03
2023-04-15T17:07:20.871Z,101051.22
2023-04-15T17:09:47.581Z,101054.16
2023-04-15T17:12:14.576Z,101049.75
2023-04-15T17:14:50.010Z,101051.88
2023-04-15T17:17:16.796Z,101049.75
2023-04-15T17:19:43.574Z,101046.34
2023-04-15T17:22:10.979Z,101049.72
2023-04-15T17:24:37.683Z,101055.84
2023-04-15T17:27:04.506Z,101050.91
2023-04-15T17:29:31.249Z,101047.84
2023-04-15T17:32:00.246Z,101046.97
2023-04-15T17:34:28.120Z,101035.06
2023-04-15T17:37:15.620Z,101037.28
2023-04-15T17:39:42.276Z,101039.59
2023-04-15T17:42:10.058Z,101049.34
2023-04-15T17:44:36.654Z,101039.59
2023-04-15T17:47:04.740Z,101042.34
2023-04-15T17:49:31.428Z,101041.50
2023-04-15T17:52:37.687Z,101045.28
2023-04-15T17:55:04.935Z,101050.78
2023-04-15T17:57:31.650Z,101041.50
2023-04-15T17:59:58.544Z,101035.75
2023-04-15T18:02:25.325Z,101037.66
2023-04-15T18:04:52.087Z,101035.31
2023-04-15T18:07:18.842Z,101036.78
2023-04-15T18:09:46.907Z,101042.31
2023-04-15T18:12:13.513Z,101038.84
2023-04-15T18:14:40.131Z,101046.84
2023-04-15T18:17:07.309Z,101041.53
2023-04-15T18:19:34.262Z,101055.91
2023-04-15T18:22:01.036Z,101052.00
2023-04-15T18:24:27.807Z,101052.63
2023-04-15T18:26:55.843Z,101059.81
2023-04-15T18:29:22.549Z,101056.19
2023-04-15T18:31:50.190Z,101057.44
2023-04-15T18:34:16.886Z,101068.22
2023-04-15T18:36:43.601Z,101069.25
2023-04-15T18:39:10.318Z,101071.38
2023-04-15T18:41:36.923Z,101072.66
2023-04-15T18:44:04.961Z,101068.88
2023-04-15T18:46:31.592Z,101074.72
2023-04-15T18:48:58.224Z,101084.84
2023-04-15T18:51:24.911Z,101075.25
2023-04-15T18:53:51.609Z,101084.78
2023-04-15T18:56:18.225Z,101083.66
2023-04-15T18:59:21.254Z,101085.25
2023-04-15T19:01:32.905Z,101087.13
2023-04-15T19:03:59.673Z,101083.53
2023-04-15T19:06:26.571Z,101087.59
2023-04-15T19:08:53.189Z,101083.06
2023-04-15T19:11:19.848Z,101093.72
2023-04-15T19:13:46.478Z,101095.63
2023-04-15T19:16:13.372Z,101095.59
2023-04-15T19:18:41.394Z,101101.09
2023-04-15T19:21:08.170Z,101103.75
2023-04-15T19:23:34.861Z,101108.25
2023-04-15T19:26:01.584Z,101105.63
2023-04-15T19:28:28.269Z,101103.94
2023-04-15T19:30:55.114Z,101104.69
2023-04-15T19:33:21.865Z,101104.06
2023-04-15T19:35:49.919Z,101109.25
2023-04-15T19:38:16.827Z,101108.69
2023-04-15T19:40:43.512Z,101117.88
2023-04-15T19:43:10.115Z,101118.22
2023-04-15T19:45:36.898Z,101111.88
2023-04-15T19:48:04.278Z,101108.00
2023-04-15T19:50:31.957Z,101113.34
2023-04-15T19:53:00.001Z,101115.09
2023-04-15T19:55:27.598Z,101121.53
2023-04-15T19:57:54.167Z,101118.31
2023-04-15T20:00:21.192Z,101122.00
2023-04-15T20:02:47.997Z,101114.16
2023-04-15T20:05:14.816Z,101123.25
2023-04-15T20:07:41.602Z,101120.50
2023-04-15T20:10:12.470Z,101118.53
2023-04-15T20:12:50.746Z,101123.81
2023-04-15T20:15:19.906Z,101128.84
2023-04-15T20:17:46.675Z,101126.19
2023-04-15T20:20:13.522Z,101125.72
2023-04-15T20:22:40.168Z,101124.13
2023-04-15T20:25:09.119Z,101121.84
2023-04-15T20:27:35.746Z,101114.25
2023-04-15T20:30:02.583Z,101119.13
2023-04-15T20:32:29.156Z,101115.94
2023-04-15T20:34:55.821Z,101116.84
2023-04-15T20:37:22.631Z,101108.53
2023-04-15T20:39:49.319Z,101119.38
2023-04-15T20:42:18.510Z,101123.41
2023-04-15T20:44:45.231Z,101127.75
2023-04-15T20:47:11.848Z,101123.13
2023-04-15T20:49:40.005Z,101132.09
2023-04-15T20:52:07.557Z,101130.44
2023-04-15T20:54:34.319Z,101140.72
2023-04-15T20:57:01.184Z,101137.72
2023-04-15T20:59:29.208Z,101143.84
2023-04-15T21:01:56.011Z,101149.44
2023-04-15T21:04:22.689Z,101151.59
2023-04-15T21:06:49.255Z,101149.22
2023-04-15T21:09:15.880Z,101147.09
2023-04-15T21:11:59.757Z,101147.16
2023-04-15T21:14:29.725Z,101150.53
2023-04-15T21:16:56.956Z,101150.63
2023-04-15T21:19:23.597Z,101156.22
2023-04-15T21:21:50.268Z,101146.69
2023-04-15T21:24:17.099Z,101155.06
2023-04-15T21:26:43.790Z,101148.84
2023-04-15T21:29:11.645Z,101154.91
2023-04-15T21:31:42.528Z,101161.81
2023-04-15T21:34:10.038Z,101161.00
2023-04-15T21:36:37.520Z,101158.03
2023-04-15T21:39:05.051Z,101170.84
2023-04-15T21:41:32.084Z,101173.59
2023-04-15T21:43:58.841Z,101169.25
2023-04-15T21:46:33.213Z,101177.94
2023-04-15T21:49:03.817Z,101184.81
2023-04-15T21:51:30.590Z,101180.75
2023-04-15T21:53:57.233Z,101184.25
2023-04-15T21:56:23.976Z,101190.66
2023-04-15T21:58:50.660Z,101183.66
2023-04-15T22:01:17.405Z,101185.97
2023-04-15T22:03:44.397Z,101195.84
2023-04-15T22:06:12.514Z,101193.50
2023-04-15T22:08:52.481Z,101200.19
2023-04-15T22:11:22.534Z,101194.59
2023-04-15T22:13:49.121Z,101194.41
2023-04-15T22:16:15.732Z,101194.97
2023-04-15T22:18:42.456Z,101201.78
2023-04-15T22:21:09.091Z,101198.06
2023-04-15T22:23:37.013Z,101194.50
2023-04-15T22:26:04.604Z,101206.19
2023-04-15T22:28:31.174Z,101203.28
2023-04-15T22:30:57.760Z,101201.94
2023-04-15T22:33:24.691Z,101205.84
2023-04-15T22:35:51.281Z,101211.06
2023-04-15T22:38:17.893Z,101209.38
2023-04-15T22:40:47.018Z,101205.41
2023-04-15T22:43:13.665Z,101206.25
2023-04-15T22:45:40.226Z,101204.75
2023-04-15T22:48:06.923Z,101208.81
2023-04-15T22:50:33.572Z,101211.44
2023-04-15T22:53:01.320Z,101207.91
2023-04-15T22:55:28.045Z,101199.69
2023-04-15T22:57:56.082Z,101207.47
2023-04-15T23:00:22.744Z,101202.84
2023-04-15T23:02:49.781Z,101206.09
2023-04-15T23:05:16.637Z,101199.75
2023-04-15T23:07:43.311Z,101200.50
2023-04-15T23:10:10.312Z,101197.56
2023-04-15T23:12:37.065Z,101200.19
2023-04-15T23:15:06.037Z,101190.22
2023-04-15T23:17:32.806Z,101195.09
2023-04-15T23:19:59.468Z,101197.88
2023-04-15T23:22:26.160Z,101208.09
2023-04-15T23:24:52.849Z,101203.72
2023-04-15T23:27:19.522Z,101205.72
2023-04-15T23:29:46.260Z,101209.13
2023-04-15T23:32:14.462Z,101217.81
2023-04-15T23:34:41.134Z,101207.91
2023-04-15T23:37:07.777Z,101198.53
2023-04-15T23:39:35.496Z,101204.56
2023-04-15T23:42:02.202Z,101198.91
2023-04-15T23:44:28.804Z,101203.16
2023-04-15T23:46:55.599Z,101211.25
2023-04-15T23:49:23.730Z,101197.75
2023-04-15T23:51:50.543Z,101200.72
2023-04-15T23:54:17.320Z,101201.69
2023-04-15T23:56:43.992Z,101200.13
2023-04-15T23:59:10.871Z,101197.28
